Time;durP1;ratioP1;P1;durP2;ratioP2;P2;SDS_P1;SDS_P2;PMS_P1;PMS_P2;Temp;Humidity;BMP_temperature;BMP_pressure;BME280_temperature;BME280_humidity;BME280_pressure;Samples;Min_cycle;Max_cycle;Signal;HPM_P1;HPM_P2
2022/04/28 00:01:56;;;;;;;14.83;10.95;;;;;;;7.99;75.88;97187.38;1759244;81;21056;-82
2022/04/28 00:04:22;;;;;;;16.55;12.47;;;;;;;7.97;75.88;97185.86;1769254;81;21393;-82
2022/04/28 00:06:47;;;;;;;18.52;13.30;;;;;;;7.98;75.95;97189.63;1768832;81;21003;-82
2022/04/28 00:09:13;;;;;;;19.77;13.90;;;;;;;7.95;75.94;97179.55;1770065;81;20984;-82
2022/04/28 00:11:39;;;;;;;21.42;14.60;;;;;;;7.93;75.95;97178.88;1770030;81;20925;-82
2022/04/28 00:14:07;;;;;;;20.57;15.50;;;;;;;7.90;76.01;97186.13;1770030;81;21027;-82
2022/04/28 00:16:32;;;;;;;22.85;16.32;;;;;;;7.83;76.01;97180.25;1770114;81;20977;-82
2022/04/28 00:18:58;;;;;;;24.77;17.62;;;;;;;7.78;76.12;97177.26;1748952;81;21418;-82
2022/04/28 00:21:24;;;;;;;27.10;19.00;;;;;;;7.72;76.03;97177.84;1769659;81;21320;-82
2022/04/28 00:23:50;;;;;;;28.85;18.92;;;;;;;7.70;76.23;97184.94;1769106;81;21020;-82
2022/04/28 00:26:15;;;;;;;28.07;18.32;;;;;;;7.69;76.09;97188.97;1769361;81;20996;-82
2022/04/28 00:28:41;;;;;;;26.37;18.87;;;;;;;7.68;76.13;97188.63;1769930;81;21033;-82
2022/04/28 00:31:07;;;;;;;25.43;18.82;;;;;;;7.65;76.14;97186.34;1766084;81;20957;-82
2022/04/28 00:33:33;;;;;;;28.10;19.40;;;;;;;7.62;76.16;97194.36;1739525;82;20960;-82
2022/04/28 00:36:00;;;;;;;26.27;19.35;;;;;;;7.58;76.18;97188.67;1739694;82;20953;-82
2022/04/28 00:38:26;;;;;;;20.50;15.50;;;;;;;7.57;76.34;97196.57;1739905;81;20925;-82
2022/04/28 00:40:51;;;;;;;23.83;16.42;;;;;;;7.51;76.28;97198.78;1739522;82;21414;-82
2022/04/28 00:43:19;;;;;;;20.80;14.78;;;;;;;7.45;76.38;97195.45;1739714;82;20977;-82
2022/04/28 00:45:48;;;;;;;22.37;16.77;;;;;;;7.39;76.30;97199.09;1720069;82;21031;-82
2022/04/28 00:51:04;;;;;;;23.87;16.60;;;;;;;7.30;76.26;97198.16;1744918;82;21379;-82
2022/04/28 00:53:30;;;;;;;25.72;17.80;;;;;;;7.27;76.29;97195.05;1745020;82;20976;-82
2022/04/28 00:55:59;;;;;;;28.30;18.57;;;;;;;7.23;76.36;97194.52;1706909;84;20963;-82
2022/04/28 00:58:24;;;;;;;25.37;19.32;;;;;;;7.16;76.40;97189.11;1745106;82;20977;-82
2022/04/28 01:00:50;;;;;;;24.43;18.92;;;;;;;7.13;76.55;97199.70;1744835;82;21379;-82
2022/04/28 01:03:16;;;;;;;26.70;19.32;;;;;;;7.08;76.64;97201.09;1744771;81;20961;-82
2022/04/28 01:05:42;;;;;;;27.80;18.82;;;;;;;7.01;76.77;97207.30;1744717;82;20984;-82
2022/04/28 01:08:08;;;;;;;28.23;19.40;;;;;;;6.97;76.76;97204.64;1744837;82;20972;-82
2022/04/28 01:10:36;;;;;;;30.00;20.15;;;;;;;6.95;76.71;97205.73;1744770;82;21379;-82
2022/04/28 01:13:04;;;;;;;31.00;21.80;;;;;;;6.92;76.75;97209.41;1744819;82;21034;-82
2022/04/28 01:15:29;;;;;;;32.60;24.32;;;;;;;6.88;76.76;97206.30;1744740;82;21089;-83
2022/04/28 01:17:55;;;;;;;36.17;23.40;;;;;;;6.83;76.81;97208.49;1717426;82;21072;-83
2022/04/28 01:20:21;;;;;;;32.58;24.25;;;;;;;6.76;77.00;97206.10;1744796;82;21407;-82
2022/04/28 01:22:47;;;;;;;35.68;25.02;;;;;;;6.71;77.12;97199.73;1744849;82;20949;-83
2022/04/28 01:25:12;;;;;;;31.82;21.77;;;;;;;6.65;77.25;97203.66;1744879;82;21407;-83
2022/04/28 01:27:38;;;;;;;29.98;20.30;;;;;;;6.61;77.28;97201.02;1744774;82;21107;-82
2022/04/28 01:30:13;;;;;;;28.52;18.35;;;;;;;6.59;77.35;97199.86;1744731;82;21324;-82
2022/04/28 01:32:39;;;;;;;29.67;19.50;;;;;;;6.60;77.33;97199.39;1744764;79;21015;-83
2022/04/28 01:35:05;;;;;;;30.48;21.87;;;;;;;6.56;77.38;97194.98;1744915;82;21379;-83
2022/04/28 01:37:31;;;;;;;34.53;26.73;;;;;;;6.52;77.44;97195.40;1744926;82;20969;-82
2022/04/28 01:39:57;;;;;;;38.40;26.10;;;;;;;6.46;77.57;97194.16;1744686;82;20988;-82
2022/04/28 01:42:23;;;;;;;34.48;26.05;;;;;;;6.41;77.62;97194.23;1744897;82;21331;-83
2022/04/28 01:44:51;;;;;;;36.98;28.32;;;;;;;6.35;77.81;97195.59;1744656;82;21067;-83
2022/04/28 01:47:17;;;;;;;37.98;27.17;;;;;;;6.29;77.93;97195.64;1744542;82;20953;-82
2022/04/28 01:49:43;;;;;;;37.67;26.00;;;;;;;6.25;77.94;97196.06;1739542;82;21450;-83
2022/04/28 01:54:59;;;;;;;29.12;21.02;;;;;;;6.23;78.03;97195.38;1739439;82;21021;-83
2022/04/28 01:57:29;;;;;;;31.68;21.50;;;;;;;6.21;78.04;97193.41;1739843;82;21371;-82
2022/04/28 01:59:57;;;;;;;35.30;24.85;;;;;;;6.17;78.10;97197.19;1739344;82;20980;-82
2022/04/28 02:02:23;;;;;;;27.67;19.37;;;;;;;6.12;78.17;97193.73;1739475;82;21028;-82
2022/04/28 02:04:49;;;;;;;25.02;18.27;;;;;;;6.06;78.35;97194.28;1739574;82;21018;-82
2022/04/28 02:07:15;;;;;;;24.57;18.30;;;;;;;6.01;78.50;97198.52;1739485;82;21080;-82
2022/04/28 02:09:44;;;;;;;27.13;17.85;;;;;;;5.96;78.60;97194.72;1739567;82;20933;-83
2022/04/28 02:12:10;;;;;;;25.08;17.62;;;;;;;5.94;78.68;97197.91;1739667;82;21324;-83
2022/04/28 02:14:36;;;;;;;21.30;16.07;;;;;;;5.91;78.74;97195.13;1739487;82;21100;-83
2022/04/28 02:17:04;;;;;;;20.80;14.33;;;;;;;5.89;78.73;97199.58;1739357;82;20988;-82
2022/04/28 02:19:31;;;;;;;20.20;14.55;;;;;;;5.88;78.76;97200.53;1739431;82;21039;-82
2022/04/28 02:21:57;;;;;;;20.97;16.10;;;;;;;5.86;78.84;97202.91;1739386;82;20988;-83
2022/04/28 02:24:22;;;;;;;23.25;16.48;;;;;;;5.84;79.00;97204.77;1739607;82;21008;-83
2022/04/28 02:26:48;;;;;;;22.90;17.82;;;;;;;5.78;79.18;97204.02;1739477;82;20984;-83
2022/04/28 02:29:14;;;;;;;23.98;17.15;;;;;;;5.74;79.30;97212.50;1739556;82;21084;-83
2022/04/28 02:31:40;;;;;;;25.45;15.68;;;;;;;5.72;79.40;97212.63;1720647;81;20941;-82
2022/04/28 02:34:05;;;;;;;18.75;13.08;;;;;;;5.69;79.33;97211.61;1739712;82;21045;-82
2022/04/28 02:36:31;;;;;;;19.35;14.93;;;;;;;5.70;79.36;97213.23;1739618;82;20960;-82
2022/04/28 02:38:58;;;;;;;24.30;17.30;;;;;;;5.71;79.38;97213.58;1739535;82;21128;-82
2022/04/28 02:41:23;;;;;;;30.15;20.45;;;;;;;5.70;79.46;97211.95;1739353;82;21048;-83
2022/04/28 02:43:49;;;;;;;29.67;21.97;;;;;;;5.70;79.56;97213.23;1739650;82;21000;-83
2022/04/28 02:46:15;;;;;;;31.80;23.22;;;;;;;5.67;79.69;97214.77;1739564;82;20925;-83
2022/04/28 02:48:41;;;;;;;27.87;21.55;;;;;;;5.65;79.82;97214.55;1738924;82;21071;-82
2022/04/28 02:51:06;;;;;;;31.75;22.52;;;;;;;5.63;79.90;97208.25;1738353;82;21095;-82
2022/04/28 02:53:34;;;;;;;36.10;22.20;;;;;;;5.63;79.93;97210.83;1739432;82;21382;-83
2022/04/28 02:56:00;;;;;;;30.17;22.98;;;;;;;5.64;79.91;97211.16;1739481;81;21399;-82
2022/04/28 02:58:26;;;;;;;32.73;24.32;;;;;;;5.65;79.96;97208.11;1739490;81;21001;-83
2022/04/28 03:00:51;;;;;;;32.10;22.75;;;;;;;5.64;80.02;97211.64;1739541;82;21068;-82
2022/04/28 03:03:17;;;;;;;31.60;23.05;;;;;;;5.62;80.05;97212.25;1739434;82;21012;-83
2022/04/28 03:11:12;;;;;;;37.65;26.75;;;;;;;5.53;80.18;97219.02;1739469;82;21384;-82
2022/04/28 03:13:38;;;;;;;43.42;29.25;;;;;;;5.53;80.26;97220.75;1739804;82;20968;-83
2022/04/28 03:16:05;;;;;;;48.63;31.50;;;;;;;5.53;80.31;97216.88;1739621;82;21032;-83
2022/04/28 03:18:31;;;;;;;42.23;31.48;;;;;;;5.53;80.38;97215.15;1739556;82;21059;-83
2022/04/28 03:20:57;;;;;;;43.63;31.55;;;;;;;5.54;80.40;97211.63;1739795;82;20981;-83
2022/04/28 03:23:23;;;;;;;44.33;33.20;;;;;;;5.53;80.56;97220.30;1739494;82;21818;-83
2022/04/28 03:25:51;;;;;;;44.42;32.93;;;;;;;5.52;80.72;97223.80;1739559;82;21000;-83
2022/04/28 03:28:20;;;;;;;45.70;32.90;;;;;;;5.49;80.83;97225.83;1739483;82;21016;-82
2022/04/28 03:30:46;;;;;;;43.33;32.38;;;;;;;5.49;80.78;97221.95;1739514;81;20993;-83
2022/04/28 03:33:15;;;;;;;45.88;31.95;;;;;;;5.47;80.67;97222.09;1739752;81;20937;-83
2022/04/28 03:35:41;;;;;;;45.05;32.90;;;;;;;5.47;80.65;97221.27;1739497;82;20974;-83
2022/04/28 03:38:12;;;;;;;46.25;31.07;;;;;;;5.49;80.78;97223.25;1739590;81;21392;-83
2022/04/28 03:40:34;;;;;;;43.28;28.83;;;;;;;5.51;80.95;97226.51;1738826;82;20997;-82
2022/04/28 03:43:00;;;;;;;36.55;26.42;;;;;;;5.49;80.93;97228.41;1739700;82;21056;-82
2022/04/28 03:45:26;;;;;;;32.40;22.87;;;;;;;5.46;80.89;97228.67;1739681;82;21041;-83
2022/04/28 03:47:52;;;;;;;28.67;20.35;;;;;;;5.42;80.87;97230.22;1746397;81;21124;-83
2022/04/28 03:50:18;;;;;;;22.50;17.02;;;;;;;5.41;80.87;97231.17;1769072;81;21000;-82
2022/04/28 03:52:44;;;;;;;20.10;14.93;;;;;;;5.41;80.84;97238.08;1769474;81;20997;-82
2022/04/28 03:55:10;;;;;;;20.88;15.40;;;;;;;5.41;80.78;97235.50;1747056;81;21264;-82
2022/04/28 03:57:36;;;;;;;18.95;14.05;;;;;;;5.42;80.76;97234.56;1742497;81;20981;-83
2022/04/28 04:00:06;;;;;;;18.02;14.50;;;;;;;5.41;80.81;97238.08;1739579;82;20953;-83
2022/04/28 04:02:32;;;;;;;20.70;14.47;;;;;;;5.41;80.87;97241.95;1729584;81;20999;-82
2022/04/28 04:04:58;;;;;;;19.75;14.85;;;;;;;5.38;80.92;97249.47;1769982;81;21320;-83
2022/04/28 04:07:29;;;;;;;24.50;18.37;;;;;;;5.36;80.96;97253.91;1755037;79;20953;-82
2022/04/28 04:09:55;;;;;;;28.73;22.27;;;;;;;5.34;81.02;97255.80;1744209;81;21039;-83
2022/04/28 04:12:21;;;;;;;27.07;20.23;;;;;;;5.33;81.10;97250.30;1744621;81;20989;-82
2022/04/28 04:14:46;;;;;;;27.75;19.52;;;;;;;5.37;81.21;97252.17;1744067;82;20982;-82
2022/04/28 04:17:12;;;;;;;25.65;17.48;;;;;;;5.40;81.23;97252.73;1742045;81;20945;-82
2022/04/28 04:19:38;;;;;;;22.22;15.23;;;;;;;5.45;81.29;97251.05;1739505;81;21005;-82
2022/04/28 04:22:03;;;;;;;18.48;14.28;;;;;;;5.47;81.32;97249.16;1739663;81;21001;-82
2022/04/28 04:24:30;;;;;;;19.60;14.78;;;;;;;5.49;81.39;97252.42;1739619;81;20960;-82
2022/04/28 04:26:57;;;;;;;17.30;12.95;;;;;;;5.50;81.44;97256.63;1739530;81;21384;-83
2022/04/28 04:29:23;;;;;;;20.55;13.43;;;;;;;5.51;81.56;97254.86;1742219;81;20924;-82
2022/04/28 04:34:33;;;;;;;17.73;12.75;;;;;;;5.53;81.67;97260.70;1743432;81;21010;-83
2022/04/28 04:36:59;;;;;;;16.12;12.07;;;;;;;5.57;81.67;97264.68;1744021;81;21410;-83
2022/04/28 04:39:24;;;;;;;14.50;12.00;;;;;;;5.60;81.66;97262.66;1742671;81;20973;-83
2022/04/28 04:41:50;;;;;;;17.52;12.40;;;;;;;5.65;81.71;97262.26;1739481;82;21000;-83
2022/04/28 04:44:16;;;;;;;16.73;12.37;;;;;;;5.59;81.76;97248.13;1739452;82;20973;-84
2022/04/28 04:46:42;;;;;;;15.85;12.33;;;;;;;5.71;81.86;97264.34;1739690;82;21023;-83
2022/04/28 04:49:08;;;;;;;16.60;12.43;;;;;;;5.76;82.02;97264.75;1750911;81;21497;-83
2022/04/28 04:51:35;;;;;;;17.57;11.57;;;;;;;5.81;82.01;97270.33;1743481;81;21016;-83
2022/04/28 04:54:00;;;;;;;14.18;10.58;;;;;;;5.87;81.95;97268.53;1738786;81;20984;-83
2022/04/28 04:56:26;;;;;;;11.78;9.43;;;;;;;5.93;81.92;97273.67;1739425;81;20933;-83
2022/04/28 04:58:52;;;;;;;13.95;11.03;;;;;;;5.98;81.89;97273.61;1739980;82;20917;-84
2022/04/28 05:01:17;;;;;;;17.80;12.55;;;;;;;6.05;81.95;97271.81;1742722;81;20972;-83
2022/04/28 05:03:43;;;;;;;16.25;12.65;;;;;;;6.12;82.04;97275.48;1739323;82;20987;-84
2022/04/28 05:06:09;;;;;;;14.87;11.73;;;;;;;6.18;82.05;97281.39;1738978;82;21088;-83
2022/04/28 05:08:35;;;;;;;15.80;11.65;;;;;;;6.20;82.12;97281.63;1740125;82;21417;-84
2022/04/28 05:11:01;;;;;;;15.65;11.65;;;;;;;6.25;82.13;97274.77;1739715;81;20927;-83
2022/04/28 05:13:26;;;;;;;18.48;13.20;;;;;;;6.29;82.20;97271.78;1740031;82;21332;-83
2022/04/28 05:15:52;;;;;;;27.35;19.42;;;;;;;6.36;82.60;97272.09;1740132;82;21029;-83
2022/04/28 05:18:18;;;;;;;33.30;23.65;;;;;;;6.49;82.78;97283.42;1739690;81;20975;-83
2022/04/28 05:20:43;;;;;;;39.83;28.70;;;;;;;6.62;82.92;97293.84;1739642;81;21043;-83
2022/04/28 05:23:09;;;;;;;40.85;29.72;;;;;;;6.73;82.35;97295.49;1740024;82;21048;-83
2022/04/28 05:25:36;;;;;;;47.95;32.50;;;;;;;6.88;81.83;97301.07;1740124;82;20980;-83
2022/04/28 05:28:02;;;;;;;41.88;30.50;;;;;;;6.97;81.75;97302.82;1739545;82;21111;-83
2022/04/28 05:30:28;;;;;;;41.20;31.12;;;;;;;7.05;81.46;97305.55;1739879;82;20925;-83
2022/04/28 05:32:53;;;;;;;44.00;31.52;;;;;;;7.14;81.32;97299.55;1739598;80;20985;-83
2022/04/28 05:35:21;;;;;;;47.15;32.63;;;;;;;7.23;80.83;97300.50;1739699;82;21019;-83
2022/04/28 05:37:46;;;;;;;45.55;31.80;;;;;;;7.30;80.21;97300.27;1740158;82;21111;-83
2022/04/28 05:40:13;;;;;;;41.48;31.20;;;;;;;7.41;80.10;97304.48;1740272;82;21015;-83
2022/04/28 05:45:42;;;;;;;40.30;31.65;;;;;;;7.62;80.05;97308.17;1740159;82;21020;-83
2022/04/28 05:48:09;;;;;;;40.85;30.17;;;;;;;7.69;79.84;97310.06;1739831;82;21395;-83
2022/04/28 05:50:37;;;;;;;44.18;31.85;;;;;;;7.78;79.44;97311.80;1739295;82;21036;-83
2022/04/28 05:53:03;;;;;;;44.20;32.03;;;;;;;7.86;79.29;97312.88;1739470;82;21004;-82
2022/04/28 05:55:28;;;;;;;43.28;29.85;;;;;;;7.95;79.43;97310.71;1739455;82;20949;-83
2022/04/28 05:57:58;;;;;;;42.75;32.50;;;;;;;8.02;78.82;97308.72;1739691;82;21028;-83
2022/04/28 06:00:24;;;;;;;40.80;28.83;;;;;;;8.12;78.25;97311.25;1739518;82;21067;-83
2022/04/28 06:02:49;;;;;;;44.77;30.25;;;;;;;8.24;78.54;97307.52;1739570;82;21031;-83
2022/04/28 06:05:15;;;;;;;39.23;28.27;;;;;;;8.37;78.74;97309.32;1739611;82;21008;-83
2022/04/28 06:07:41;;;;;;;37.20;25.68;;;;;;;8.46;78.29;97310.69;1739360;82;21371;-83
2022/04/28 06:10:07;;;;;;;36.28;26.50;;;;;;;8.55;78.47;97306.76;1739438;82;21057;-83
2022/04/28 06:12:33;;;;;;;43.08;31.27;;;;;;;8.66;78.34;97313.03;1739422;82;20968;-83
2022/04/28 06:14:58;;;;;;;41.02;30.88;;;;;;;8.77;78.15;97309.87;1739465;82;21005;-83
2022/04/28 06:17:24;;;;;;;43.75;32.85;;;;;;;8.88;77.54;97309.18;1739452;82;21089;-83
2022/04/28 06:19:50;;;;;;;44.67;31.68;;;;;;;9.05;77.50;97311.92;1739336;82;21134;-83
2022/04/28 06:22:15;;;;;;;37.65;29.75;;;;;;;9.20;76.95;97320.31;1739483;82;21340;-83
2022/04/28 06:24:41;;;;;;;37.75;28.80;;;;;;;9.30;76.87;97316.34;1739509;82;21080;-83
2022/04/28 06:27:07;;;;;;;39.55;29.50;;;;;;;9.45;76.23;97325.70;1739434;82;21299;-83
2022/04/28 06:29:32;;;;;;;37.50;29.40;;;;;;;9.57;76.02;97321.38;1739302;82;20996;-83
2022/04/28 06:31:58;;;;;;;36.90;28.20;;;;;;;9.67;75.36;97323.08;1739554;81;21414;-83
2022/04/28 06:34:24;;;;;;;43.28;30.85;;;;;;;9.76;75.44;97323.44;1739288;82;21431;-83
2022/04/28 06:36:50;;;;;;;36.45;29.37;;;;;;;9.79;74.42;97318.78;1739589;82;21079;-83
2022/04/28 06:39:16;;;;;;;37.83;28.77;;;;;;;9.81;73.52;97321.22;1739538;82;21098;-83
2022/04/28 06:41:43;;;;;;;40.25;29.72;;;;;;;9.85;74.01;97322.53;1739404;82;21000;-83
2022/04/28 06:44:10;;;;;;;48.45;34.83;;;;;;;9.98;74.22;97319.03;1739424;82;21035;-83
2022/04/28 06:46:36;;;;;;;43.92;30.23;;;;;;;10.15;74.00;97316.84;1739394;82;21036;-83
2022/04/28 06:49:04;;;;;;;36.00;28.32;;;;;;;10.31;73.50;97324.41;1732326;82;21435;-83
2022/04/28 06:51:31;;;;;;;34.30;27.13;;;;;;;10.42;73.37;97321.53;1690999;83;21104;-83
2022/04/28 06:54:00;;;;;;;35.50;27.20;;;;;;;10.50;72.43;97322.35;1717160;83;20976;-83
2022/04/28 06:56:25;;;;;;;35.28;27.70;;;;;;;10.53;72.82;97321.22;1717152;83;20988;-83
2022/04/28 06:58:51;;;;;;;35.58;26.90;;;;;;;10.60;72.75;97327.42;1717170;83;21083;-83
2022/04/28 07:01:17;;;;;;;31.27;21.90;;;;;;;10.64;71.26;97324.83;1717338;84;20984;-83
2022/04/28 07:03:44;;;;;;;31.37;23.20;;;;;;;10.66;69.54;97331.16;1690394;84;21481;-83
2022/04/28 07:06:10;;;;;;;26.07;20.72;;;;;;;10.69;69.99;97331.66;1717182;83;20989;-83
2022/04/28 07:08:36;;;;;;;23.83;18.35;;;;;;;10.79;70.50;97328.44;1717184;83;21413;-84
2022/04/28 07:11:03;;;;;;;22.77;18.45;;;;;;;10.87;69.13;97328.92;1717010;83;21015;-83
2022/04/28 07:13:30;;;;;;;20.80;16.57;;;;;;;10.97;68.94;97332.69;1690832;84;21382;-83
2022/04/28 07:15:57;;;;;;;22.75;17.67;;;;;;;11.06;68.61;97335.61;1717083;83;21052;-83
2022/04/28 07:18:23;;;;;;;25.35;19.90;;;;;;;11.10;66.83;97338.23;1729175;82;21032;-83
2022/04/28 07:20:49;;;;;;;24.25;19.85;;;;;;;11.17;68.08;97337.90;1745771;82;21000;-84
2022/04/28 07:23:16;;;;;;;23.30;19.73;;;;;;;11.19;67.38;97344.23;1745885;82;21346;-83
2022/04/28 07:25:42;;;;;;;18.45;15.60;;;;;;;11.25;67.92;97340.52;1746117;81;21351;-83
2022/04/28 07:28:08;;;;;;;23.27;14.55;;;;;;;11.31;66.15;97346.36;1746625;82;21075;-83
2022/04/28 07:30:34;;;;;;;17.73;14.00;;;;;;;11.36;65.68;97341.48;1746691;82;20996;-83
2022/04/28 07:33:03;;;;;;;17.87;13.50;;;;;;;11.41;65.56;97353.53;1719869;81;21415;-83
2022/04/28 07:35:29;;;;;;;21.33;13.95;;;;;;;11.48;65.50;97348.97;1668297;84;21415;-83
2022/04/28 07:37:55;;;;;;;18.35;14.35;;;;;;;11.53;64.80;97347.98;1667118;84;20968;-83
2022/04/28 07:40:21;;;;;;;21.37;16.07;;;;;;;11.55;64.99;97342.11;1716989;83;21110;-83
2022/04/28 07:42:49;;;;;;;18.57;14.93;;;;;;;11.62;65.94;97357.42;1667733;84;20980;-83
2022/04/28 07:45:17;;;;;;;19.05;14.95;;;;;;;11.73;65.50;97353.19;1691178;84;20957;-83
2022/04/28 07:47:44;;;;;;;13.00;10.68;;;;;;;11.81;64.71;97358.39;1717340;83;21031;-83
2022/04/28 07:50:10;;;;;;;14.55;11.48;;;;;;;11.87;62.81;97362.12;1717017;82;21048;-83
2022/04/28 07:52:38;;;;;;;18.67;13.40;;;;;;;11.89;63.87;97358.89;1717204;83;20976;-83
2022/04/28 07:55:07;;;;;;;17.42;13.53;;;;;;;11.96;63.61;97359.34;1716963;83;21435;-83
2022/04/28 07:57:33;;;;;;;15.03;11.48;;;;;;;12.02;63.03;97361.77;1717085;83;20988;-83
2022/04/28 07:59:59;;;;;;;12.30;9.48;;;;;;;12.08;63.20;97358.52;1717271;83;21392;-83
2022/04/28 08:02:26;;;;;;;13.53;10.05;;;;;;;12.17;61.95;97357.48;1690872;83;20940;-83
2022/04/28 08:04:53;;;;;;;11.95;10.28;;;;;;;12.29;61.58;97359.25;1717247;83;21774;-83
2022/04/28 08:07:19;;;;;;;12.90;10.53;;;;;;;12.34;60.88;97363.45;1717139;83;20968;-83
2022/04/28 08:09:45;;;;;;;16.65;12.20;;;;;;;12.38;59.47;97362.66;1717353;83;21000;-83
2022/04/28 08:12:11;;;;;;;17.15;12.53;;;;;;;12.42;59.06;97354.81;1717378;83;20976;-83
2022/04/28 08:14:39;;;;;;;14.23;11.50;;;;;;;12.43;60.05;97361.65;1717419;83;21398;-83
2022/04/28 08:17:05;;;;;;;15.75;11.70;;;;;;;12.50;60.56;97362.58;1717243;83;21394;-83
2022/04/28 08:19:32;;;;;;;14.38;10.43;;;;;;;12.42;60.45;97366.55;1717354;83;20949;-83
2022/04/28 08:22:03;;;;;;;14.05;9.73;;;;;;;12.35;59.51;97370.30;1717245;83;20985;-83
2022/04/28 08:24:29;;;;;;;13.28;9.63;;;;;;;12.48;59.66;97357.54;1717337;83;20976;-83
2022/04/28 08:26:55;;;;;;;12.18;8.60;;;;;;;12.42;58.59;97364.75;1716826;82;21036;-83
2022/04/28 08:29:22;;;;;;;9.80;8.48;;;;;;;12.37;58.79;97369.66;1717612;83;20964;-83
2022/04/28 08:31:49;;;;;;;9.53;8.53;;;;;;;12.48;56.92;97367.97;1717109;82;21019;-84
2022/04/28 08:34:21;;;;;;;7.62;5.92;;;;;;;12.44;56.86;97364.08;1716765;82;21319;-83
2022/04/28 08:36:47;;;;;;;;;;;;;;;12.61;54.75;97370.84;1719545;82;20964;-84
2022/04/28 08:39:14;;;;;;;7.87;6.65;;;;;;;12.74;56.66;97371.61;1729937;82;20103;-83
2022/04/28 08:41:45;;;;;;;10.45;7.47;;;;;;;12.85;56.20;97370.39;1719304;82;21039;-83
2022/04/28 08:44:23;;;;;;;8.68;7.33;;;;;;;12.78;56.99;97376.80;1718744;82;21042;-83
2022/04/28 08:46:52;;;;;;;10.38;7.15;;;;;;;12.67;56.80;97378.47;1726503;82;20991;-83
2022/04/28 08:49:25;;;;;;;9.18;7.20;;;;;;;12.50;55.94;97380.34;1728924;81;20934;-83
2022/04/28 08:51:53;;;;;;;10.53;7.80;;;;;;;12.46;53.29;97380.85;1752727;81;20953;-83
2022/04/28 08:54:20;;;;;;;9.18;7.28;;;;;;;12.26;55.91;97380.44;1769899;81;20934;-84
2022/04/28 08:56:46;;;;;;;9.70;6.58;;;;;;;12.25;56.91;97380.93;1769863;81;21379;-83
2022/04/28 08:59:14;;;;;;;10.90;8.40;;;;;;;12.43;56.69;97388.52;1750494;81;20981;-84
2022/04/28 09:01:39;;;;;;;10.82;9.33;;;;;;;12.44;56.29;97384.94;1769895;81;20953;-83
2022/04/28 09:04:05;;;;;;;13.50;10.28;;;;;;;12.55;56.62;97380.66;1769919;81;21044;-83
2022/04/28 09:06:34;;;;;;;15.40;11.12;;;;;;;12.54;56.92;97375.12;1775709;81;20981;-84
2022/04/28 09:09:07;;;;;;;12.20;10.03;;;;;;;12.61;57.02;97371.34;1750318;81;21000;-83
2022/04/28 09:11:36;;;;;;;13.83;9.45;;;;;;;12.50;57.30;97372.52;1740376;81;21389;-83
2022/04/28 09:14:11;;;;;;;10.88;8.53;;;;;;;12.42;56.80;97375.66;1739397;82;21091;-83
2022/04/28 09:16:44;;;;;;;11.65;8.18;;;;;;;12.46;56.06;97371.73;1739407;82;21059;-83
2022/04/28 09:19:15;;;;;;;12.03;8.28;;;;;;;12.68;55.99;97370.97;1720657;82;21060;-84
2022/04/28 09:21:41;;;;;;;11.38;8.13;;;;;;;12.70;54.94;97378.16;1743653;81;21016;-83
2022/04/28 09:24:09;;;;;;;10.25;7.90;;;;;;;12.79;54.24;97371.90;1739492;81;21390;-83
2022/04/28 09:26:35;;;;;;;11.63;6.83;;;;;;;12.95;54.14;97370.19;1739243;81;21355;-83
2022/04/28 09:29:03;;;;;;;9.08;6.30;;;;;;;13.12;51.83;97365.99;1739397;81;20952;-83
2022/04/28 09:31:37;;;;;;;12.18;9.20;;;;;;;13.32;52.18;97363.75;1741430;81;21019;-83
2022/04/28 09:34:13;;;;;;;10.50;7.92;;;;;;;13.56;50.11;97369.78;1764454;81;21238;-83
2022/04/28 09:36:45;;;;;;;9.70;8.58;;;;;;;13.72;52.41;97370.95;1752555;81;21032;-83
2022/04/28 09:44:50;;;;;;;12.03;8.63;;;;;;;14.07;50.60;97374.69;1739101;81;20960;-83
2022/04/28 09:47:20;;;;;;;12.85;8.58;;;;;;;14.06;50.10;97377.80;1757039;81;20945;-83
2022/04/28 09:49:52;;;;;;;12.68;8.60;;;;;;;13.97;51.20;97376.25;1753248;81;21524;-83
2022/04/28 09:52:19;;;;;;;12.40;8.68;;;;;;;13.93;52.62;97374.98;1743052;81;21006;-83
2022/04/28 09:54:47;;;;;;;11.90;9.15;;;;;;;13.95;51.75;97376.11;1728985;81;20968;-83
2022/04/28 09:57:14;;;;;;;12.33;9.13;;;;;;;14.10;50.50;97366.48;1729170;81;21066;-83
2022/04/28 09:59:42;;;;;;;12.35;9.20;;;;;;;14.23;50.26;97361.45;1754512;81;21357;-83
2022/04/28 10:02:13;;;;;;;12.10;8.28;;;;;;;14.30;51.92;97370.17;1747060;81;21030;-83
2022/04/28 10:04:41;;;;;;;10.35;8.35;;;;;;;14.53;50.13;97361.47;1734806;81;21020;-82
2022/04/28 10:07:09;;;;;;;8.70;7.00;;;;;;;14.54;50.77;97331.70;1744487;81;20964;-83
2022/04/28 10:09:37;;;;;;;9.78;6.97;;;;;;;14.87;47.76;97352.50;1742118;81;21039;-83
2022/04/28 10:12:07;;;;;;;8.83;7.92;;;;;;;14.78;48.33;97356.21;1738984;81;21369;-83
2022/04/28 10:14:34;;;;;;;10.70;6.87;;;;;;;14.68;47.39;97353.91;1746514;81;21078;-83
2022/04/28 10:17:00;;;;;;;7.92;6.37;;;;;;;14.53;43.71;97353.62;1746169;81;21018;-83
2022/04/28 10:19:31;;;;;;;7.85;6.72;;;;;;;14.38;46.44;97359.64;1716702;81;21011;-83
2022/04/28 10:22:01;;;;;;;7.80;6.12;;;;;;;14.19;45.94;97358.89;1719611;81;20995;-83
2022/04/28 11:13:30;;;;;;;11.80;10.25;;;;;;;14.31;49.90;97360.03;1713119;83;21059;-84
2022/04/28 11:15:57;;;;;;;10.60;9.38;;;;;;;14.26;51.18;97365.50;1688152;84;21435;-84
2022/04/28 11:18:23;;;;;;;11.90;8.83;;;;;;;14.27;51.34;97361.89;1695195;84;21030;-84
2022/04/28 11:20:53;;;;;;;11.73;9.50;;;;;;;14.24;49.17;97372.22;1666381;84;21315;-84
2022/04/28 11:23:19;;;;;;;12.28;9.13;;;;;;;14.22;50.30;97378.63;1712120;84;20996;-84
2022/04/28 11:25:45;;;;;;;9.93;8.35;;;;;;;14.22;48.20;97374.20;1710075;83;21473;-84
2022/04/28 11:28:11;;;;;;;8.93;7.53;;;;;;;14.22;47.46;97372.09;1701065;84;20971;-84
2022/04/28 11:30:42;;;;;;;9.43;7.97;;;;;;;14.26;49.07;97369.42;1689445;84;20956;-84
2022/04/28 11:33:12;;;;;;;8.70;6.45;;;;;;;14.37;47.76;97375.02;1713518;83;20972;-85
2022/04/28 11:35:40;;;;;;;11.15;7.90;;;;;;;14.46;48.67;97373.63;1715538;84;20928;-85
2022/04/28 11:38:08;;;;;;;8.23;7.42;;;;;;;14.50;48.77;97368.38;1694204;84;21048;-85
2022/04/28 11:40:37;;;;;;;7.33;5.67;;;;;;;14.51;47.93;97369.99;1695871;84;21458;-84
2022/04/28 11:43:06;;;;;;;8.70;7.42;;;;;;;14.48;46.57;97384.71;1714043;84;21123;-84
2022/04/28 11:45:33;;;;;;;8.08;6.40;;;;;;;14.47;48.46;97383.09;1714049;83;21979;-85
2022/04/28 11:48:00;;;;;;;8.25;6.83;;;;;;;14.51;48.29;97379.14;1713953;84;21364;-86
2022/04/28 11:50:32;;;;;;;7.45;6.65;;;;;;;14.59;47.71;97370.69;1713850;84;21022;-85
2022/04/28 11:53:03;;;;;;;;;;;;;;;14.66;48.39;97368.17;1728809;82;21372;-85
2022/04/28 11:55:31;;;;;;;8.13;6.33;;;;;;;14.90;47.71;97371.75;1720803;82;20089;-85
2022/04/28 11:57:58;;;;;;;8.45;6.45;;;;;;;15.15;45.39;97361.77;1757670;80;21315;-85
2022/04/28 12:00:26;;;;;;;7.10;5.72;;;;;;;15.32;45.92;97362.33;1756902;80;20970;-85
2022/04/28 12:02:53;;;;;;;7.70;5.97;;;;;;;15.41;46.09;97355.95;1757187;80;21013;-85
2022/04/28 12:05:25;;;;;;;7.70;6.62;;;;;;;15.47;45.85;97359.14;1756706;80;20998;-84
2022/04/28 12:07:52;;;;;;;6.42;5.62;;;;;;;15.51;45.15;97360.88;1757169;80;21273;-85
2022/04/28 12:16:13;;;;;;;6.75;5.55;;;;;;;15.31;42.70;97359.40;1739656;82;21030;-86
2022/04/28 12:21:37;;;;;;;12.37;9.90;;;;;;;14.76;44.79;97366.55;1735000;82;20979;-85
2022/04/28 12:24:15;;;;;;;16.65;13.50;;;;;;;14.56;43.59;97375.48;1737192;82;21448;-85
2022/04/28 12:26:46;;;;;;;10.95;8.65;;;;;;;14.33;45.25;97376.38;1736801;83;21049;-85
2022/04/28 12:29:14;;;;;;;8.23;6.73;;;;;;;14.13;44.94;97376.58;1735394;82;21005;-85
2022/04/28 12:31:41;;;;;;;23.20;19.37;;;;;;;13.98;45.45;97377.87;1738414;82;21029;-85
2022/04/28 12:34:13;;;;;;;14.63;11.53;;;;;;;13.81;46.24;97373.79;1737944;82;21010;-85
2022/04/28 12:36:54;;;;;;;8.68;6.50;;;;;;;13.68;46.21;97370.50;1737378;83;20978;-85
2022/04/28 12:39:21;;;;;;;10.15;6.72;;;;;;;13.62;46.82;97372.49;1737497;82;21046;-86
2022/04/28 12:41:47;;;;;;;8.55;6.72;;;;;;;13.55;46.67;97370.77;1739805;82;21041;-84
2022/04/28 12:44:13;;;;;;;7.70;6.95;;;;;;;13.54;47.62;97373.08;1739792;82;20993;-85
2022/04/28 12:46:44;;;;;;;10.38;7.70;;;;;;;13.52;47.01;97374.55;1740145;82;21124;-84